Time;durP1;ratioP1;P1;durP2;ratioP2;P2;SDS_P1;SDS_P2;PMS_P1;PMS_P2;Temp;Humidity;BMP_temperature;BMP_pressure;BME280_temperature;BME280_humidity;BME280_pressure;Samples;Min_cycle;Max_cycle;Signal;HPM_P1;HPM_P2
2022/10/26 00:02:19;;;;;;;9.32;4.82;;;;;;;;;;5177079;28;20022;-87
2022/10/26 00:04:49;;;;;;;5.43;5.03;;;;;;;;;;5176844;28;20029;-87
2022/10/26 00:07:19;;;;;;;6.93;5.32;;;;;;;;;;5177195;28;20029;-86
2022/10/26 00:09:50;;;;;;;7.78;5.63;;;;;;;;;;5177041;28;20023;-86
2022/10/26 00:12:20;;;;;;;7.15;5.20;;;;;;;;;;5176256;28;20111;-86
2022/10/26 00:14:50;;;;;;;6.93;5.40;;;;;;;;;;5176765;28;20026;-86
2022/10/26 00:17:20;;;;;;;5.63;5.22;;;;;;;;;;5177504;28;20026;-87
2022/10/26 00:19:51;;;;;;;9.15;5.10;;;;;;;;;;5176664;28;20017;-87
2022/10/26 00:22:21;;;;;;;7.00;6.35;;;;;;;;;;5176952;28;20019;-86
2022/10/26 00:24:51;;;;;;;7.07;6.20;;;;;;;;;;5175921;28;20021;-87
2022/10/26 00:27:22;;;;;;;6.57;6.10;;;;;;;;;;5191057;23;20026;-79
2022/10/26 00:29:52;;;;;;;7.27;6.37;;;;;;;;;;5226813;28;20515;-81
2022/10/26 00:32:24;;;;;;;7.13;6.43;;;;;;;;;;5208000;28;20252;-82
2022/10/26 00:34:55;;;;;;;7.22;6.50;;;;;;;;;;5206193;28;20256;-83
2022/10/26 00:37:25;;;;;;;7.67;6.90;;;;;;;;;;5207591;28;20014;-83
2022/10/26 00:39:55;;;;;;;8.18;6.72;;;;;;;;;;5209507;28;20275;-81
2022/10/26 00:42:26;;;;;;;7.03;6.43;;;;;;;;;;5223048;28;20475;-85
2022/10/26 00:44:58;;;;;;;7.75;7.15;;;;;;;;;;5206018;28;20025;-84
2022/10/26 00:47:32;;;;;;;7.97;7.43;;;;;;;;;;5208135;28;20013;-83
2022/10/26 00:50:05;;;;;;;14.52;8.32;;;;;;;;;;5208685;28;20057;-83
2022/10/26 00:52:36;;;;;;;10.10;8.13;;;;;;;;;;5211037;28;20032;-83
2022/10/26 00:55:07;;;;;;;8.05;7.25;;;;;;;;;;5214427;28;20092;-83
2022/10/26 00:57:37;;;;;;;14.10;9.25;;;;;;;;;;5218253;28;20032;-80
2022/10/26 01:00:08;;;;;;;9.55;6.88;;;;;;;;;;5220150;28;20025;-81
2022/10/26 01:02:38;;;;;;;8.88;8.07;;;;;;;;;;5220458;28;20021;-80
2022/10/26 01:05:09;;;;;;;8.60;7.73;;;;;;;;;;5220066;28;20080;-80
2022/10/26 01:07:40;;;;;;;7.15;6.53;;;;;;;;;;5218198;28;20275;-82
2022/10/26 01:10:10;;;;;;;7.65;6.93;;;;;;;;;;5217302;28;20168;-80
2022/10/26 01:12:41;;;;;;;9.38;6.80;;;;;;;;;;5230605;28;20037;-80
2022/10/26 01:15:11;;;;;;;13.45;7.90;;;;;;;;;;5213571;28;20223;-84
2022/10/26 01:17:49;;;;;;;8.43;6.38;;;;;;;;;;5214574;28;20029;-80
2022/10/26 01:20:22;;;;;;;6.95;6.53;;;;;;;;;;5230822;28;20025;-83
2022/10/26 01:22:57;;;;;;;7.00;6.40;;;;;;;;;;5215323;28;20474;-80
2022/10/26 01:25:30;;;;;;;8.90;6.68;;;;;;;;;;5212195;28;20376;-80
2022/10/26 01:28:01;;;;;;;6.35;5.47;;;;;;;;;;5228883;28;20399;-80
2022/10/26 01:30:32;;;;;;;5.60;5.10;;;;;;;;;;5212827;28;20072;-80
2022/10/26 01:33:08;;;;;;;5.53;4.50;;;;;;;;;;5228717;28;20025;-81
2022/10/26 01:35:50;;;;;;;7.20;4.60;;;;;;;;;;5228843;28;20386;-80
2022/10/26 01:38:28;;;;;;;8.27;4.93;;;;;;;;;;5214068;28;20095;-81
2022/10/26 01:40:58;;;;;;;4.10;3.70;;;;;;;;;;5213165;28;20021;-83
2022/10/26 01:43:30;;;;;;;5.73;5.23;;;;;;;;;;5213147;28;20090;-80
2022/10/26 01:46:02;;;;;;;4.47;4.28;;;;;;;;;;5212484;28;20256;-80
2022/10/26 01:48:33;;;;;;;4.97;4.57;;;;;;;;;;5210813;28;20108;-82
2022/10/26 01:51:04;;;;;;;4.43;3.65;;;;;;;;;;5213100;28;20037;-83
2022/10/26 01:53:35;;;;;;;7.38;4.47;;;;;;;;;;5211994;28;20022;-80
2022/10/26 01:56:10;;;;;;;3.10;2.97;;;;;;;;;;5214343;28;20018;-82
2022/10/26 01:58:40;;;;;;;4.95;3.63;;;;;;;;;;5214283;28;20021;-80
2022/10/26 02:01:19;;;;;;;4.53;3.83;;;;;;;;;;5229564;28;20125;-81
2022/10/26 02:03:54;;;;;;;6.13;3.92;;;;;;;;;;5210244;28;20034;-81
2022/10/26 02:06:36;;;;;;;12.43;4.18;;;;;;;;;;5227113;28;20376;-81
2022/10/26 02:09:15;;;;;;;4.65;3.08;;;;;;;;;;5213230;28;20026;-82
2022/10/26 02:11:47;;;;;;;5.13;3.97;;;;;;;;;;5216108;28;20029;-80
2022/10/26 02:14:30;;;;;;;3.78;3.55;;;;;;;;;;5214143;28;20047;-81
2022/10/26 02:17:06;;;;;;;3.40;3.10;;;;;;;;;;5231047;28;20040;-80
2022/10/26 02:19:48;;;;;;;4.35;3.72;;;;;;;;;;5216136;28;20497;-81
2022/10/26 02:22:20;;;;;;;3.42;3.08;;;;;;;;;;5216181;28;20087;-81
2022/10/26 02:24:51;;;;;;;4.63;4.13;;;;;;;;;;5209301;28;20022;-80
2022/10/26 02:27:24;;;;;;;6.85;3.63;;;;;;;;;;5209368;28;20507;-81
2022/10/26 02:29:55;;;;;;;5.05;4.18;;;;;;;;;;5209683;28;20035;-80
2022/10/26 02:32:29;;;;;;;6.07;4.90;;;;;;;;;;5209853;28;20033;-81
2022/10/26 02:35:01;;;;;;;4.60;4.13;;;;;;;;;;5208569;28;20505;-80
2022/10/26 02:37:32;;;;;;;3.53;3.28;;;;;;;;;;5209556;28;20053;-80
2022/10/26 02:40:05;;;;;;;6.50;4.82;;;;;;;;;;5208937;28;20104;-81
2022/10/26 02:42:36;;;;;;;4.45;3.42;;;;;;;;;;5209077;28;20522;-81
2022/10/26 02:45:08;;;;;;;5.10;4.03;;;;;;;;;;5208956;28;20021;-81
2022/10/26 02:47:39;;;;;;;6.75;3.40;;;;;;;;;;5208853;28;20018;-80
2022/10/26 02:50:09;;;;;;;7.38;4.15;;;;;;;;;;5208018;28;20479;-81
2022/10/26 02:52:39;;;;;;;2.90;2.75;;;;;;;;;;5208221;28;20068;-80
2022/10/26 02:55:19;;;;;;;3.43;3.10;;;;;;;;;;5207011;28;20097;-80
2022/10/26 02:57:54;;;;;;;3.15;2.95;;;;;;;;;;5208072;28;20022;-80
2022/10/26 03:00:25;;;;;;;3.88;3.58;;;;;;;;;;5208313;28;20047;-80
2022/10/26 03:02:56;;;;;;;2.95;2.83;;;;;;;;;;5223213;28;20365;-81
2022/10/26 03:05:28;;;;;;;3.72;3.40;;;;;;;;;;5205137;28;20032;-80
2022/10/26 03:07:59;;;;;;;3.88;3.55;;;;;;;;;;5207594;28;20112;-80
2022/10/26 03:10:30;;;;;;;3.28;2.85;;;;;;;;;;5207577;28;20105;-81
2022/10/26 03:13:00;;;;;;;2.38;2.28;;;;;;;;;;5206658;28;20049;-80
2022/10/26 03:15:31;;;;;;;4.30;3.38;;;;;;;;;;5226969;28;20021;-81
2022/10/26 03:18:01;;;;;;;5.97;3.23;;;;;;;;;;5210367;28;20029;-81
2022/10/26 03:20:31;;;;;;;8.52;3.13;;;;;;;;;;5206766;28;20260;-81
2022/10/26 03:23:01;;;;;;;3.78;3.47;;;;;;;;;;5206952;28;20037;-81
2022/10/26 03:25:32;;;;;;;4.33;3.30;;;;;;;;;;5211870;28;20029;-81
2022/10/26 03:28:03;;;;;;;7.57;4.37;;;;;;;;;;5215988;28;20268;-81
2022/10/26 03:30:33;;;;;;;3.25;3.05;;;;;;;;;;5230961;28;20017;-82
2022/10/26 03:33:03;;;;;;;6.57;4.67;;;;;;;;;;5216389;28;20083;-81
2022/10/26 03:35:34;;;;;;;4.68;4.25;;;;;;;;;;5215293;28;20260;-81
2022/10/26 03:38:04;;;;;;;4.00;3.80;;;;;;;;;;5209161;28;20120;-80
2022/10/26 03:40:34;;;;;;;3.63;3.33;;;;;;;;;;5208910;28;20267;-81
2022/10/26 03:43:05;;;;;;;4.50;3.28;;;;;;;;;;5208983;28;20017;-84
2022/10/26 03:45:35;;;;;;;5.20;4.67;;;;;;;;;;5209716;28;20025;-82
2022/10/26 03:48:05;;;;;;;4.40;3.17;;;;;;;;;;5225099;28;20291;-83
2022/10/26 03:50:35;;;;;;;4.43;3.67;;;;;;;;;;5209509;28;20375;-84
2022/10/26 03:53:06;;;;;;;5.93;4.23;;;;;;;;;;5209167;28;20271;-82
2022/10/26 03:55:36;;;;;;;5.20;2.70;;;;;;;;;;5207658;28;20275;-84
2022/10/26 03:58:07;;;;;;;2.67;2.53;;;;;;;;;;5209524;28;20013;-84
2022/10/26 04:00:37;;;;;;;4.47;4.15;;;;;;;;;;5208866;28;20264;-81
2022/10/26 04:03:08;;;;;;;3.80;3.53;;;;;;;;;;5208011;28;20087;-82
2022/10/26 04:05:38;;;;;;;3.30;3.20;;;;;;;;;;5206845;28;20657;-81
2022/10/26 04:08:08;;;;;;;7.37;4.27;;;;;;;;;;5208240;28;20828;-83
2022/10/26 04:10:38;;;;;;;4.05;3.75;;;;;;;;;;5209306;28;20284;-84
2022/10/26 04:13:10;;;;;;;2.97;2.83;;;;;;;;;;5207142;28;20056;-83
2022/10/26 04:15:40;;;;;;;3.45;3.22;;;;;;;;;;5206854;28;20018;-84
2022/10/26 04:18:13;;;;;;;3.08;2.97;;;;;;;;;;5207817;28;20028;-80
2022/10/26 04:20:43;;;;;;;5.32;4.05;;;;;;;;;;5208346;28;20014;-84
2022/10/26 04:23:15;;;;;;;3.90;3.50;;;;;;;;;;5208098;28;20108;-82
2022/10/26 04:25:45;;;;;;;3.25;2.97;;;;;;;;;;5207732;28;20248;-81
2022/10/26 04:28:15;;;;;;;8.45;4.03;;;;;;;;;;5208527;28;20131;-84
2022/10/26 04:30:46;;;;;;;5.32;3.95;;;;;;;;;;5207875;28;20025;-82
2022/10/26 04:33:16;;;;;;;4.10;3.20;;;;;;;;;;5208045;28;20068;-84
2022/10/26 04:35:47;;;;;;;3.30;2.83;;;;;;;;;;5207818;28;20018;-83
2022/10/26 04:38:17;;;;;;;4.43;4.07;;;;;;;;;;5207614;28;20495;-83
2022/10/26 04:40:49;;;;;;;3.17;2.97;;;;;;;;;;5228617;28;20016;-80
2022/10/26 04:43:19;;;;;;;3.90;2.50;;;;;;;;;;5221966;28;20365;-80
2022/10/26 04:45:53;;;;;;;6.57;3.22;;;;;;;;;;5212284;28;20025;-79
2022/10/26 04:48:23;;;;;;;6.07;3.03;;;;;;;;;;5209739;28;20024;-80
2022/10/26 04:50:57;;;;;;;2.80;2.60;;;;;;;;;;5208283;28;20025;-79
2022/10/26 04:53:27;;;;;;;2.63;2.42;;;;;;;;;;5208073;28;20079;-80
2022/10/26 04:55:58;;;;;;;3.45;3.15;;;;;;;;;;5226051;28;20072;-79
2022/10/26 04:58:28;;;;;;;3.35;3.10;;;;;;;;;;5209634;28;20032;-79
2022/10/26 05:01:00;;;;;;;2.70;2.55;;;;;;;;;;5209674;28;20117;-80
2022/10/26 05:03:30;;;;;;;5.93;3.47;;;;;;;;;;5222510;28;20020;-80
2022/10/26 05:06:00;;;;;;;4.57;4.27;;;;;;;;;;5246903;28;20021;-80
2022/10/26 05:08:30;;;;;;;3.00;2.90;;;;;;;;;;5223925;28;20384;-82
2022/10/26 05:11:01;;;;;;;3.63;3.20;;;;;;;;;;5216012;28;20283;-81
2022/10/26 05:13:31;;;;;;;3.07;2.47;;;;;;;;;;5225170;28;20260;-82
2022/10/26 05:16:01;;;;;;;5.67;4.03;;;;;;;;;;5235035;28;20258;-81
2022/10/26 05:18:31;;;;;;;3.43;3.13;;;;;;;;;;5250101;28;20271;-81
2022/10/26 05:21:02;;;;;;;4.25;3.97;;;;;;;;;;5235873;28;20362;-82
2022/10/26 05:23:32;;;;;;;2.92;2.72;;;;;;;;;;5240447;22;20615;-64
2022/10/26 05:26:03;;;;;;;3.30;3.10;;;;;;;;;;5194348;28;20124;-64
2022/10/26 05:28:33;;;;;;;3.17;2.88;;;;;;;;;;5181101;28;20016;-63
2022/10/26 05:31:04;;;;;;;3.25;2.75;;;;;;;;;;5205558;28;20094;-64
2022/10/26 05:33:34;;;;;;;7.57;5.22;;;;;;;;;;5206172;28;20052;-63
2022/10/26 05:36:04;;;;;;;2.55;2.35;;;;;;;;;;5206991;28;20086;-63
2022/10/26 05:38:35;;;;;;;3.60;3.33;;;;;;;;;;5206751;28;20453;-64
2022/10/26 05:41:05;;;;;;;3.50;3.28;;;;;;;;;;5206819;28;20017;-64
2022/10/26 05:43:35;;;;;;;5.72;3.42;;;;;;;;;;5206774;28;20083;-65
2022/10/26 05:46:06;;;;;;;5.18;4.53;;;;;;;;;;5211138;28;20021;-64
2022/10/26 05:48:36;;;;;;;3.35;3.17;;;;;;;;;;5211309;28;20051;-64
2022/10/26 05:51:06;;;;;;;4.18;3.47;;;;;;;;;;5211017;28;20116;-64
2022/10/26 05:53:37;;;;;;;4.10;2.88;;;;;;;;;;5210667;28;20040;-65
2022/10/26 05:56:19;;;;;;;3.40;3.20;;;;;;;;;;5227887;28;20017;-65
2022/10/26 05:58:50;;;;;;;7.70;3.92;;;;;;;;;;5210913;28;20481;-64
2022/10/26 06:01:38;;;;;;;3.85;3.67;;;;;;;;;;5210551;28;20021;-65
2022/10/26 06:04:24;;;;;;;3.13;2.92;;;;;;;;;;5210635;28;20439;-64
2022/10/26 06:06:55;;;;;;;2.97;2.83;;;;;;;;;;5210850;28;20025;-65
2022/10/26 06:09:25;;;;;;;5.93;2.97;;;;;;;;;;5210908;28;20499;-64
2022/10/26 06:11:56;;;;;;;3.92;3.63;;;;;;;;;;5210595;28;20036;-64
2022/10/26 06:14:26;;;;;;;4.07;3.70;;;;;;;;;;5228599;28;20108;-64
2022/10/26 06:17:07;;;;;;;3.15;3.03;;;;;;;;;;5210334;28;20535;-65
2022/10/26 06:19:40;;;;;;;3.45;3.08;;;;;;;;;;5210323;28;20017;-64
2022/10/26 06:22:20;;;;;;;16.65;3.28;;;;;;;;;;5210440;28;20021;-64
2022/10/26 06:24:50;;;;;;;;;;;;;;;;;;5210468;28;20120;-65
2022/10/26 06:27:30;;;;;;;3.77;2.73;;;;;;;;;;5210379;28;19980;-65
2022/10/26 06:30:11;;;;;;;3.00;2.90;;;;;;;;;;5225801;22;20304;-70
2022/10/26 06:32:45;;;;;;;5.00;3.63;;;;;;;;;;5190892;28;20049;-71
2022/10/26 06:35:36;;;;;;;2.88;2.78;;;;;;;;;;5190774;28;20028;-71
2022/10/26 06:38:09;;;;;;;4.40;3.13;;;;;;;;;;5208410;28;20026;-70
2022/10/26 06:40:41;;;;;;;3.53;3.22;;;;;;;;;;5190449;28;20029;-71
2022/10/26 06:43:15;;;;;;;6.97;3.60;;;;;;;;;;5190410;28;20029;-71
2022/10/26 06:45:48;;;;;;;4.78;3.97;;;;;;;;;;5190251;28;20025;-71
2022/10/26 06:48:20;;;;;;;3.38;3.15;;;;;;;;;;5190926;28;20409;-71
2022/10/26 06:50:51;;;;;;;3.17;3.00;;;;;;;;;;5190395;28;20228;-71
2022/10/26 06:53:40;;;;;;;3.95;3.75;;;;;;;;;;5190507;28;20022;-71
2022/10/26 06:56:12;;;;;;;4.10;3.55;;;;;;;;;;5189550;28;20021;-71
2022/10/26 06:58:43;;;;;;;5.20;4.80;;;;;;;;;;5190705;28;20018;-72
2022/10/26 07:01:14;;;;;;;2.75;2.65;;;;;;;;;;5190476;28;20021;-71
2022/10/26 07:03:44;;;;;;;2.83;2.72;;;;;;;;;;5189778;28;20021;-71
2022/10/26 07:06:15;;;;;;;2.88;2.67;;;;;;;;;;5190160;28;20053;-71
2022/10/26 07:08:45;;;;;;;4.07;3.60;;;;;;;;;;5190580;28;20049;-71
2022/10/26 07:11:15;;;;;;;6.95;3.83;;;;;;;;;;5190104;28;20013;-72
2022/10/26 07:13:45;;;;;;;4.57;3.55;;;;;;;;;;5207897;28;20351;-74
2022/10/26 07:16:16;;;;;;;2.97;2.78;;;;;;;;;;5207814;28;20097;-72
2022/10/26 07:18:46;;;;;;;6.93;4.47;;;;;;;;;;5190157;28;20041;-71
2022/10/26 07:21:17;;;;;;;7.50;3.47;;;;;;;;;;5189708;28;20039;-70
2022/10/26 07:23:47;;;;;;;3.80;3.60;;;;;;;;;;5189426;28;20025;-69
2022/10/26 07:26:18;;;;;;;9.80;4.47;;;;;;;;;;5189752;28;20029;-70
2022/10/26 07:28:49;;;;;;;3.47;3.20;;;;;;;;;;5189568;28;20507;-66
2022/10/26 07:31:19;;;;;;;3.50;3.20;;;;;;;;;;5189718;28;20055;-67
2022/10/26 07:33:51;;;;;;;3.45;3.15;;;;;;;;;;5189219;28;20112;-67
2022/10/26 07:36:22;;;;;;;3.65;3.35;;;;;;;;;;5189715;28;20037;-67
2022/10/26 07:38:52;;;;;;;4.90;3.70;;;;;;;;;;5189197;28;20017;-67
2022/10/26 07:41:23;;;;;;;2.10;1.98;;;;;;;;;;5189138;28;20017;-63
2022/10/26 07:43:53;;;;;;;3.13;3.00;;;;;;;;;;5207117;28;20409;-66
2022/10/26 07:46:23;;;;;;;4.07;2.75;;;;;;;;;;5189674;28;20022;-67
2022/10/26 07:48:54;;;;;;;3.30;3.10;;;;;;;;;;5189833;28;20021;-68
2022/10/26 07:51:24;;;;;;;4.88;2.75;;;;;;;;;;5189224;28;20021;-69
2022/10/26 07:53:55;;;;;;;4.18;3.75;;;;;;;;;;5188727;28;20021;-68
2022/10/26 07:56:25;;;;;;;4.05;3.63;;;;;;;;;;5189282;28;20029;-68
2022/10/26 07:58:56;;;;;;;4.50;4.18;;;;;;;;;;5189384;28;20089;-65
2022/10/26 08:01:27;;;;;;;3.63;3.28;;;;;;;;;;5188727;28;20025;-65
2022/10/26 08:03:57;;;;;;;3.30;3.10;;;;;;;;;;5188617;28;20027;-64
2022/10/26 08:06:27;;;;;;;3.80;3.55;;;;;;;;;;5188758;28;20032;-65
2022/10/26 08:08:58;;;;;;;6.72;3.38;;;;;;;;;;5206442;28;20363;-65
2022/10/26 08:11:28;;;;;;;4.28;4.03;;;;;;;;;;5191032;28;20021;-64
2022/10/26 08:13:58;;;;;;;3.65;3.40;;;;;;;;;;5191225;28;20524;-64
2022/10/26 08:16:30;;;;;;;5.13;2.35;;;;;;;;;;5187912;28;20017;-65
2022/10/26 08:19:00;;;;;;;2.55;2.45;;;;;;;;;;5188345;28;20028;-65
2022/10/26 08:21:30;;;;;;;5.60;3.80;;;;;;;;;;5188283;28;20408;-65
2022/10/26 08:24:01;;;;;;;4.78;4.45;;;;;;;;;;5187932;28;20025;-64
2022/10/26 08:26:31;;;;;;;4.22;3.83;;;;;;;;;;5188509;28;20032;-65
2022/10/26 08:29:01;;;;;;;8.80;3.70;;;;;;;;;;5187846;28;20118;-64
2022/10/26 08:31:32;;;;;;;8.82;4.28;;;;;;;;;;5188162;28;20021;-65
2022/10/26 08:34:03;;;;;;;4.95;2.90;;;;;;;;;;5187963;28;20017;-64
2022/10/26 08:36:33;;;;;;;3.75;3.45;;;;;;;;;;5188237;28;20028;-64
2022/10/26 08:39:04;;;;;;;5.03;3.97;;;;;;;;;;5187755;28;20393;-64
2022/10/26 08:41:51;;;;;;;6.13;3.78;;;;;;;;;;5187750;28;20025;-64
2022/10/26 08:44:28;;;;;;;3.90;3.60;;;;;;;;;;5187599;28;20040;-64
2022/10/26 08:47:24;;;;;;;4.53;3.70;;;;;;;;;;5188238;28;20099;-63
2022/10/26 08:49:59;;;;;;;4.75;4.35;;;;;;;;;;5184384;28;20041;-64
2022/10/26 08:52:39;;;;;;;3.08;2.97;;;;;;;;;;5188404;28;20052;-64
2022/10/26 08:55:22;;;;;;;4.68;2.92;;;;;;;;;;5187896;28;20551;-67
2022/10/26 08:57:52;;;;;;;3.83;2.63;;;;;;;;;;5188304;28;20072;-66
2022/10/26 09:00:24;;;;;;;4.40;3.80;;;;;;;;;;5205589;28;20025;-65
2022/10/26 09:02:55;;;;;;;6.22;3.85;;;;;;;;;;5187831;28;20474;-65
2022/10/26 09:05:31;;;;;;;9.05;3.67;;;;;;;;;;5187675;28;20026;-64
2022/10/26 09:08:10;;;;;;;4.25;3.08;;;;;;;;;;5187054;28;20091;-65
2022/10/26 09:10:50;;;;;;;3.33;3.22;;;;;;;;;;5200534;28;20020;-67
2022/10/26 09:13:26;;;;;;;6.18;3.60;;;;;;;;;;5207739;28;20052;-65
2022/10/26 09:15:56;;;;;;;5.95;3.60;;;;;;;;;;5225801;28;20055;-64
2022/10/26 09:18:53;;;;;;;4.28;3.47;;;;;;;;;;5207384;28;20052;-66
2022/10/26 09:21:30;;;;;;;5.47;3.17;;;;;;;;;;5208286;28;20424;-66
2022/10/26 09:24:04;;;;;;;6.82;4.00;;;;;;;;;;5224989;28;20047;-64
2022/10/26 09:26:42;;;;;;;4.22;3.25;;;;;;;;;;5208152;28;20485;-65
2022/10/26 09:29:13;;;;;;;5.20;3.80;;;;;;;;;;5225588;28;20032;-65
2022/10/26 09:31:46;;;;;;;3.90;2.78;;;;;;;;;;5207882;28;20021;-64
2022/10/26 09:34:21;;;;;;;4.72;2.85;;;;;;;;;;5206948;28;20547;-65
2022/10/26 09:36:53;;;;;;;8.25;4.32;;;;;;;;;;5207844;28;20671;-65
2022/10/26 09:39:35;;;;;;;3.83;3.50;;;;;;;;;;5207393;28;20013;-65
2022/10/26 09:42:17;;;;;;;2.95;2.75;;;;;;;;;;5207954;28;20025;-66
2022/10/26 09:44:54;;;;;;;8.77;2.90;;;;;;;;;;5224881;28;20078;-66
2022/10/26 09:47:24;;;;;;;6.30;2.38;;;;;;;;;;5208471;28;20237;-65
2022/10/26 09:50:00;;;;;;;3.42;3.17;;;;;;;;;;5204505;28;20060;-64
2022/10/26 09:52:31;;;;;;;4.88;3.08;;;;;;;;;;5187561;28;20087;-68
2022/10/26 09:55:01;;;;;;;2.92;2.72;;;;;;;;;;5186693;28;20017;-65
2022/10/26 09:57:31;;;;;;;2.70;2.55;;;;;;;;;;5204582;28;20029;-65
2022/10/26 10:00:02;;;;;;;3.08;2.65;;;;;;;;;;5204759;28;20104;-65
2022/10/26 10:02:42;;;;;;;3.85;2.55;;;;;;;;;;5187067;28;20142;-64
2022/10/26 10:05:40;;;;;;;3.65;2.55;;;;;;;;;;5186486;28;20380;-64
2022/10/26 10:08:23;;;;;;;4.53;2.65;;;;;;;;;;5183269;28;20034;-64
2022/10/26 10:10:57;;;;;;;6.65;2.47;;;;;;;;;;5186713;28;20097;-65
2022/10/26 10:13:29;;;;;;;3.85;3.58;;;;;;;;;;5186297;28;20033;-64
2022/10/26 10:16:02;;;;;;;4.95;2.90;;;;;;;;;;5186927;28;20477;-65
2022/10/26 10:18:34;;;;;;;3.50;2.47;;;;;;;;;;5204613;28;20053;-64
2022/10/26 10:21:05;;;;;;;2.08;1.98;;;;;;;;;;5186823;28;20022;-65
2022/10/26 10:23:36;;;;;;;2.83;2.60;;;;;;;;;;5204188;28;20029;-65
2022/10/26 10:26:11;;;;;;;3.60;3.08;;;;;;;;;;5186639;28;20079;-65
2022/10/26 10:28:42;;;;;;;2.33;2.15;;;;;;;;;;5187260;28;20029;-64
2022/10/26 10:31:20;;;;;;;4.28;2.88;;;;;;;;;;5189072;28;20079;-64
2022/10/26 10:33:54;;;;;;;2.65;2.47;;;;;;;;;;5190360;28;20026;-64
2022/10/26 10:36:25;;;;;;;2.45;2.25;;;;;;;;;;5190329;28;20021;-63
2022/10/26 10:38:56;;;;;;;5.32;2.25;;;;;;;;;;5189178;28;20083;-66
2022/10/26 10:41:36;;;;;;;6.68;3.42;;;;;;;;;;5189360;28;20436;-66
2022/10/26 10:44:24;;;;;;;13.07;4.43;;;;;;;;;;5189928;28;20414;-66
2022/10/26 10:47:04;;;;;;;2.70;2.60;;;;;;;;;;5190198;28;20056;-65
2022/10/26 10:49:35;;;;;;;5.68;2.22;;;;;;;;;;5189962;28;20022;-67
2022/10/26 10:52:05;;;;;;;2.38;2.13;;;;;;;;;;5189745;28;20107;-65
2022/10/26 10:54:37;;;;;;;2.50;2.10;;;;;;;;;;5189492;28;20021;-65
2022/10/26 10:57:26;;;;;;;2.20;2.10;;;;;;;;;;5190162;28;20021;-65
2022/10/26 10:59:57;;;;;;;4.50;4.10;;;;;;;;;;5189961;28;20508;-65
2022/10/26 11:02:45;;;;;;;2.75;2.55;;;;;;;;;;5189481;28;20025;-65
2022/10/26 11:05:34;;;;;;;2.78;2.40;;;;;;;;;;5189348;28;20022;-65
2022/10/26 11:08:07;;;;;;;2.97;2.55;;;;;;;;;;5189730;28;20108;-67
2022/10/26 11:10:39;;;;;;;7.28;2.45;;;;;;;;;;5189362;28;20079;-64
2022/10/26 11:13:18;;;;;;;8.73;3.20;;;;;;;;;;5189563;28;20020;-65
2022/10/26 11:15:51;;;;;;;4.30;2.07;;;;;;;;;;5189428;28;20025;-65
2022/10/26 11:18:27;;;;;;;2.45;2.35;;;;;;;;;;5189383;28;20021;-65
2022/10/26 11:21:03;;;;;;;2.67;2.55;;;;;;;;;;5189181;28;20033;-67
2022/10/26 11:23:39;;;;;;;2.38;2.20;;;;;;;;;;5189315;28;20025;-64
2022/10/26 11:26:16;;;;;;;1.85;1.80;;;;;;;;;;5189210;28;20029;-67
2022/10/26 11:28:50;;;;;;;2.17;2.08;;;;;;;;;;5189013;28;20029;-64
2022/10/26 11:31:24;;;;;;;4.43;3.33;;;;;;;;;;5188956;28;20033;-69
2022/10/26 11:34:12;;;;;;;2.78;2.67;;;;;;;;;;5188907;28;20029;-66
2022/10/26 11:36:44;;;;;;;3.63;2.50;;;;;;;;;;5206780;28;20026;-64
2022/10/26 11:39:19;;;;;;;1.92;1.83;;;;;;;;;;5189159;28;20358;-69
2022/10/26 11:42:01;;;;;;;2.63;2.42;;;;;;;;;;5187134;28;20071;-66
2022/10/26 11:44:50;;;;;;;3.22;3.03;;;;;;;;;;5188048;28;20029;-66
2022/10/26 11:47:41;;;;;;;3.63;2.88;;;;;;;;;;5188935;28;20092;-67
2022/10/26 11:50:21;;;;;;;4.47;3.17;;;;;;;;;;5165447;28;20452;-67
2022/10/26 11:53:10;;;;;;;2.40;2.30;;;;;;;;;;5189014;28;20389;-66
2022/10/26 11:55:41;;;;;;;2.40;2.30;;;;;;;;;;5188965;28;20021;-66
2022/10/26 11:58:11;;;;;;;7.32;3.58;;;;;;;;;;5188654;28;20477;-67
2022/10/26 12:00:54;;;;;;;8.20;3.72;;;;;;;;;;5188045;28;20033;-66
2022/10/26 12:03:25;;;;;;;8.05;3.00;;;;;;;;;;5188089;28;20044;-66
2022/10/26 12:05:56;;;;;;;2.85;2.65;;;;;;;;;;5188837;28;20037;-67
2022/10/26 12:08:36;;;;;;;2.00;1.90;;;;;;;;;;5188823;28;20099;-68
2022/10/26 12:11:10;;;;;;;3.70;2.28;;;;;;;;;;5188454;28;20021;-69
2022/10/26 12:13:41;;;;;;;5.50;3.33;;;;;;;;;;5188425;28;20101;-68
2022/10/26 12:16:23;;;;;;;6.28;3.08;;;;;;;;;;5188306;28;20121;-67
2022/10/26 12:18:57;;;;;;;6.03;2.58;;;;;;;;;;5188193;28;20037;-65
2022/10/26 12:21:29;;;;;;;3.72;3.47;;;;;;;;;;5187918;28;20022;-65
2022/10/26 12:24:20;;;;;;;2.20;2.10;;;;;;;;;;5187638;28;20075;-65
2022/10/26 12:26:55;;;;;;;2.58;2.42;;;;;;;;;;5174407;28;20038;-68
2022/10/26 12:29:28;;;;;;;2.08;1.98;;;;;;;;;;5212856;22;20037;-85
2022/10/26 12:31:58;;;;;;;14.75;2.90;;;;;;;;;;5214230;28;20483;-86
2022/10/26 12:34:28;;;;;;;3.65;3.03;;;;;;;;;;5195233;28;20017;-84
2022/10/26 12:36:59;;;;;;;15.87;3.97;;;;;;;;;;5213598;28;20386;-86
2022/10/26 12:39:29;;;;;;;2.47;2.23;;;;;;;;;;5214977;28;20275;-86
2022/10/26 12:42:08;;;;;;;2.35;2.03;;;;;;;;;;5196431;28;20033;-86
2022/10/26 12:44:42;;;;;;;7.53;2.63;;;;;;;;;;5195702;28;20493;-86
2022/10/26 12:47:27;;;;;;;3.28;2.88;;;;;;;;;;5213523;28;20017;-84
2022/10/26 12:49:58;;;;;;;5.05;2.50;;;;;;;;;;5213691;28;20443;-84
2022/10/26 12:52:40;;;;;;;2.72;2.63;;;;;;;;;;5213285;28;20020;-84
2022/10/26 12:55:10;;;;;;;4.82;3.33;;;;;;;;;;5212621;28;20025;-81
2022/10/26 12:57:47;;;;;;;2.47;2.37;;;;;;;;;;5197804;28;20605;-82
2022/10/26 13:00:21;;;;;;;2.90;2.67;;;;;;;;;;5189633;28;20108;-83
2022/10/26 13:03:13;;;;;;;3.40;3.10;;;;;;;;;;5191101;28;20013;-85
2022/10/26 13:06:05;;;;;;;3.88;3.53;;;;;;;;;;5210149;28;20028;-84
2022/10/26 13:08:40;;;;;;;2.72;2.53;;;;;;;;;;5211592;28;20109;-81
2022/10/26 13:11:16;;;;;;;2.45;2.25;;;;;;;;;;5209568;28;20430;-86
2022/10/26 13:13:54;;;;;;;6.63;4.90;;;;;;;;;;5188753;28;20403;-84
2022/10/26 13:16:25;;;;;;;5.47;3.50;;;;;;;;;;5208430;28;20026;-82
2022/10/26 13:18:56;;;;;;;5.18;2.85;;;;;;;;;;5206730;28;20024;-82
2022/10/26 13:21:27;;;;;;;3.25;2.50;;;;;;;;;;5207979;28;20033;-83
2022/10/26 13:24:04;;;;;;;8.40;3.70;;;;;;;;;;5188756;28;20018;-84
2022/10/26 13:26:54;;;;;;;2.72;2.38;;;;;;;;;;5206141;28;20049;-81
2022/10/26 13:29:28;;;;;;;2.80;2.65;;;;;;;;;;5205306;28;20040;-86
2022/10/26 13:31:59;;;;;;;4.53;2.70;;;;;;;;;;5187615;28;20025;-84
2022/10/26 13:34:30;;;;;;;2.08;1.83;;;;;;;;;;5205694;28;20472;-85
2022/10/26 13:37:03;;;;;;;6.13;2.25;;;;;;;;;;5193885;28;20045;-84
2022/10/26 13:39:36;;;;;;;2.72;2.45;;;;;;;;;;5211171;28;20028;-82
2022/10/26 13:42:11;;;;;;;3.58;2.33;;;;;;;;;;5209627;28;20017;-85
2022/10/26 13:44:44;;;;;;;4.25;2.50;;;;;;;;;;5191341;28;20380;-83
2022/10/26 13:47:24;;;;;;;2.38;1.95;;;;;;;;;;5208236;28;20424;-81
2022/10/26 13:49:57;;;;;;;4.80;2.50;;;;;;;;;;5207446;28;20022;-81
2022/10/26 13:52:31;;;;;;;3.25;2.03;;;;;;;;;;5207208;28;20053;-81
2022/10/26 13:55:06;;;;;;;5.25;1.90;;;;;;;;;;5188033;28;20013;-82
2022/10/26 13:57:56;;;;;;;1.95;1.85;;;;;;;;;;5188754;28;20391;-83
2022/10/26 14:00:26;;;;;;;5.97;3.40;;;;;;;;;;5206326;28;20049;-83
2022/10/26 14:02:56;;;;;;;2.67;2.53;;;;;;;;;;5188094;28;20068;-83
2022/10/26 14:05:27;;;;;;;2.87;2.77;;;;;;;;;;5205884;28;20025;-83
2022/10/26 14:07:57;;;;;;;2.63;2.40;;;;;;;;;;5209946;28;20017;-83
2022/10/26 14:10:36;;;;;;;2.92;1.50;;;;;;;;;;5211080;28;20018;-83
2022/10/26 14:13:08;;;;;;;7.97;3.42;;;;;;;;;;5196806;28;20024;-82
2022/10/26 14:15:45;;;;;;;1.92;1.83;;;;;;;;;;5211075;28;20111;-83
2022/10/26 14:18:30;;;;;;;2.75;2.60;;;;;;;;;;5195843;28;20021;-85
2022/10/26 14:21:00;;;;;;;2.88;2.47;;;;;;;;;;5212652;28;20021;-85
2022/10/26 14:23:43;;;;;;;1.80;1.80;;;;;;;;;;5192376;28;20041;-85
2022/10/26 14:26:24;;;;;;;3.28;3.08;;;;;;;;;;5210587;28;20021;-83
2022/10/26 14:29:13;;;;;;;7.22;2.50;;;;;;;;;;5211174;28;20040;-83
2022/10/26 14:31:43;;;;;;;9.50;2.72;;;;;;;;;;5215189;28;20479;-82
2022/10/26 14:34:14;;;;;;;3.53;2.55;;;;;;;;;;5215984;28;20164;-84
2022/10/26 14:36:49;;;;;;;6.43;2.72;;;;;;;;;;5199927;28;20013;-84
2022/10/26 14:39:30;;;;;;;1.77;1.77;;;;;;;;;;5217543;28;20077;-84
2022/10/26 14:42:02;;;;;;;6.22;3.17;;;;;;;;;;5215474;28;20021;-84
2022/10/26 14:44:35;;;;;;;4.47;4.15;;;;;;;;;;5209450;28;20025;-83
2022/10/26 14:47:18;;;;;;;7.53;2.70;;;;;;;;;;5210435;28;20132;-84
2022/10/26 14:49:48;;;;;;;2.63;2.50;;;;;;;;;;5191649;28;20021;-85
2022/10/26 14:52:23;;;;;;;3.10;2.00;;;;;;;;;;5192025;28;20079;-83
2022/10/26 14:54:58;;;;;;;2.35;2.25;;;;;;;;;;5191260;28;20444;-80
2022/10/26 14:57:35;;;;;;;5.88;1.70;;;;;;;;;;5193023;28;20470;-81
2022/10/26 15:00:22;;;;;;;5.65;2.63;;;;;;;;;;5192130;28;20041;-81
2022/10/26 15:02:54;;;;;;;3.05;2.83;;;;;;;;;;5210921;28;20018;-81
2022/10/26 15:05:31;;;;;;;3.75;2.08;;;;;;;;;;5207896;28;20218;-80
2022/10/26 15:08:24;;;;;;;3.10;2.83;;;;;;;;;;5209403;28;20561;-82
2022/10/26 15:11:06;;;;;;;2.30;2.20;;;;;;;;;;5209839;28;20048;-82
2022/10/26 15:13:44;;;;;;;11.27;4.28;;;;;;;;;;5190769;28;20017;-79
2022/10/26 15:16:21;;;;;;;2.78;2.08;;;;;;;;;;5210436;28;20519;-82
2022/10/26 15:18:56;;;;;;;1.52;1.50;;;;;;;;;;5192190;28;20013;-79
2022/10/26 15:21:30;;;;;;;2.63;1.90;;;;;;;;;;5191881;28;20053;-82
2022/10/26 15:24:01;;;;;;;2.25;2.17;;;;;;;;;;5209138;28;20531;-80